sensor_id;sensor_type;location;lat;lon;timestamp;P1;durP1;ratioP1;P2;durP2;ratioP2
5539;SDS011;2792;52.452;9.752;2024-02-26T00:00:09;4.37;;;3.70;;
5539;SDS011;2792;52.452;9.752;2024-02-26T00:02:37;4.33;;;3.87;;
5539;SDS011;2792;52.452;9.752;2024-02-26T00:05:05;4.73;;;4.13;;
5539;SDS011;2792;52.452;9.752;2024-02-26T00:07:32;4.57;;;4.00;;
5539;SDS011;2792;52.452;9.752;2024-02-26T00:09:59;4.47;;;3.47;;
5539;SDS011;2792;52.452;9.752;2024-02-26T00:12:25;4.63;;;3.97;;
5539;SDS011;2792;52.452;9.752;2024-02-26T00:14:52;4.20;;;3.77;;
5539;SDS011;2792;52.452;9.752;2024-02-26T00:17:18;6.40;;;4.13;;
5539;SDS011;2792;52.452;9.752;2024-02-26T00:19:46;4.57;;;3.70;;
5539;SDS011;2792;52.452;9.752;2024-02-26T00:22:13;4.37;;;3.70;;
5539;SDS011;2792;52.452;9.752;2024-02-26T00:24:40;4.70;;;4.00;;
5539;SDS011;2792;52.452;9.752;2024-02-26T00:27:06;4.90;;;3.90;;
5539;SDS011;2792;52.452;9.752;2024-02-26T00:29:33;6.80;;;3.80;;
5539;SDS011;2792;52.452;9.752;2024-02-26T00:31:58;5.10;;;3.97;;
5539;SDS011;2792;52.452;9.752;2024-02-26T00:34:25;6.70;;;4.60;;
5539;SDS011;2792;52.452;9.752;2024-02-26T00:36:53;5.13;;;4.17;;
5539;SDS011;2792;52.452;9.752;2024-02-26T00:39:19;4.20;;;3.80;;
5539;SDS011;2792;52.452;9.752;2024-02-26T00:41:46;5.60;;;4.30;;
5539;SDS011;2792;52.452;9.752;2024-02-26T00:44:12;4.17;;;3.77;;
5539;SDS011;2792;52.452;9.752;2024-02-26T00:46:39;5.57;;;4.17;;
5539;SDS011;2792;52.452;9.752;2024-02-26T00:49:05;4.17;;;3.77;;
5539;SDS011;2792;52.452;9.752;2024-02-26T00:51:32;4.70;;;3.43;;
5539;SDS011;2792;52.452;9.752;2024-02-26T00:53:59;4.80;;;4.10;;
5539;SDS011;2792;52.452;9.752;2024-02-26T00:56:26;4.70;;;3.77;;
5539;SDS011;2792;52.452;9.752;2024-02-26T00:58:52;4.17;;;3.77;;
5539;SDS011;2792;52.452;9.752;2024-02-26T01:01:19;5.00;;;4.17;;
5539;SDS011;2792;52.452;9.752;2024-02-26T01:03:46;4.37;;;3.60;;
5539;SDS011;2792;52.452;9.752;2024-02-26T01:06:12;4.97;;;4.27;;
5539;SDS011;2792;52.452;9.752;2024-02-26T01:08:38;4.97;;;4.47;;
5539;SDS011;2792;52.452;9.752;2024-02-26T01:11:06;4.50;;;4.00;;
5539;SDS011;2792;52.452;9.752;2024-02-26T01:13:33;4.57;;;4.03;;
5539;SDS011;2792;52.452;9.752;2024-02-26T01:16:00;5.57;;;4.17;;
5539;SDS011;2792;52.452;9.752;2024-02-26T01:18:26;4.60;;;3.80;;
5539;SDS011;2792;52.452;9.752;2024-02-26T01:20:53;3.90;;;3.60;;
5539;SDS011;2792;52.452;9.752;2024-02-26T01:23:19;4.23;;;3.83;;
5539;SDS011;2792;52.452;9.752;2024-02-26T01:25:46;7.70;;;4.00;;
5539;SDS011;2792;52.452;9.752;2024-02-26T01:28:14;4.60;;;3.80;;
5539;SDS011;2792;52.452;9.752;2024-02-26T01:30:41;5.60;;;4.57;;
5539;SDS011;2792;52.452;9.752;2024-02-26T01:33:07;14.80;;;9.60;;
5539;SDS011;2792;52.452;9.752;2024-02-26T01:35:34;17.40;;;8.90;;
5539;SDS011;2792;52.452;9.752;2024-02-26T01:38:01;6.70;;;5.17;;
5539;SDS011;2792;52.452;9.752;2024-02-26T01:40:27;12.47;;;4.57;;
5539;SDS011;2792;52.452;9.752;2024-02-26T01:42:55;6.00;;;4.93;;
5539;SDS011;2792;52.452;9.752;2024-02-26T01:45:22;5.50;;;5.00;;
5539;SDS011;2792;52.452;9.752;2024-02-26T01:47:50;6.83;;;4.80;;
5539;SDS011;2792;52.452;9.752;2024-02-26T01:50:17;5.90;;;4.80;;
5539;SDS011;2792;52.452;9.752;2024-02-26T01:52:44;4.37;;;3.93;;
5539;SDS011;2792;52.452;9.752;2024-02-26T01:55:11;4.10;;;3.70;;
5539;SDS011;2792;52.452;9.752;2024-02-26T01:57:39;5.47;;;4.20;;
5539;SDS011;2792;52.452;9.752;2024-02-26T02:00:06;6.87;;;4.33;;
5539;SDS011;2792;52.452;9.752;2024-02-26T02:02:35;5.60;;;4.00;;
5539;SDS011;2792;52.452;9.752;2024-02-26T02:05:03;5.63;;;3.37;;
5539;SDS011;2792;52.452;9.752;2024-02-26T02:07:31;5.73;;;3.70;;
5539;SDS011;2792;52.452;9.752;2024-02-26T02:09:58;4.27;;;3.87;;
5539;SDS011;2792;52.452;9.752;2024-02-26T02:12:24;5.83;;;4.43;;
5539;SDS011;2792;52.452;9.752;2024-02-26T02:14:51;4.10;;;3.70;;
5539;SDS011;2792;52.452;9.752;2024-02-26T02:17:17;5.63;;;3.63;;
5539;SDS011;2792;52.452;9.752;2024-02-26T02:19:45;3.90;;;3.50;;
5539;SDS011;2792;52.452;9.752;2024-02-26T02:22:13;4.03;;;3.63;;
5539;SDS011;2792;52.452;9.752;2024-02-26T02:24:40;3.77;;;3.40;;
5539;SDS011;2792;52.452;9.752;2024-02-26T02:27:06;3.90;;;3.60;;
5539;SDS011;2792;52.452;9.752;2024-02-26T02:29:33;5.27;;;3.43;;
5539;SDS011;2792;52.452;9.752;2024-02-26T02:31:59;5.00;;;4.10;;
5539;SDS011;2792;52.452;9.752;2024-02-26T02:34:27;4.93;;;3.80;;
5539;SDS011;2792;52.452;9.752;2024-02-26T02:36:54;4.87;;;4.37;;
5539;SDS011;2792;52.452;9.752;2024-02-26T02:39:22;3.97;;;3.57;;
5539;SDS011;2792;52.452;9.752;2024-02-26T02:41:49;5.50;;;4.13;;
5539;SDS011;2792;52.452;9.752;2024-02-26T02:44:15;4.43;;;3.60;;
5539;SDS011;2792;52.452;9.752;2024-02-26T02:46:42;6.37;;;4.17;;
5539;SDS011;2792;52.452;9.752;2024-02-26T02:49:09;5.50;;;4.07;;
5539;SDS011;2792;52.452;9.752;2024-02-26T02:51:35;4.90;;;4.40;;
5539;SDS011;2792;52.452;9.752;2024-02-26T02:54:02;6.60;;;3.90;;
5539;SDS011;2792;52.452;9.752;2024-02-26T02:56:30;5.57;;;4.40;;
5539;SDS011;2792;52.452;9.752;2024-02-26T02:58:57;4.73;;;3.90;;
5539;SDS011;2792;52.452;9.752;2024-02-26T03:01:23;6.47;;;4.33;;
5539;SDS011;2792;52.452;9.752;2024-02-26T03:03:50;4.23;;;3.73;;
5539;SDS011;2792;52.452;9.752;2024-02-26T03:06:16;4.93;;;4.43;;
5539;SDS011;2792;52.452;9.752;2024-02-26T03:08:43;6.00;;;4.10;;
5539;SDS011;2792;52.452;9.752;2024-02-26T03:11:12;6.03;;;4.77;;
5539;SDS011;2792;52.452;9.752;2024-02-26T03:13:41;5.23;;;4.30;;
5539;SDS011;2792;52.452;9.752;2024-02-26T03:16:08;5.63;;;4.55;;
5539;SDS011;2792;52.452;9.752;2024-02-26T03:18:34;6.73;;;5.10;;
5539;SDS011;2792;52.452;9.752;2024-02-26T03:21:01;4.77;;;4.37;;
5539;SDS011;2792;52.452;9.752;2024-02-26T03:23:27;8.73;;;4.60;;
5539;SDS011;2792;52.452;9.752;2024-02-26T03:25:55;6.57;;;4.80;;
5539;SDS011;2792;52.452;9.752;2024-02-26T03:28:22;7.07;;;4.70;;
5539;SDS011;2792;52.452;9.752;2024-02-26T03:30:50;5.23;;;4.20;;
5539;SDS011;2792;52.452;9.752;2024-02-26T03:33:16;5.93;;;4.10;;
5539;SDS011;2792;52.452;9.752;2024-02-26T03:35:43;4.00;;;3.60;;
5539;SDS011;2792;52.452;9.752;2024-02-26T03:38:09;5.17;;;4.00;;
5539;SDS011;2792;52.452;9.752;2024-02-26T03:40:36;3.97;;;3.53;;
5539;SDS011;2792;52.452;9.752;2024-02-26T03:43:02;5.30;;;4.30;;
5539;SDS011;2792;52.452;9.752;2024-02-26T03:45:31;5.93;;;4.05;;
5539;SDS011;2792;52.452;9.752;2024-02-26T03:47:59;4.40;;;3.60;;
5539;SDS011;2792;52.452;9.752;2024-02-26T03:50:25;5.93;;;3.90;;
5539;SDS011;2792;52.452;9.752;2024-02-26T03:52:52;4.73;;;3.60;;
5539;SDS011;2792;52.452;9.752;2024-02-26T03:55:19;4.75;;;3.75;;
5539;SDS011;2792;52.452;9.752;2024-02-26T03:57:49;4.10;;;3.80;;
5539;SDS011;2792;52.452;9.752;2024-02-26T04:00:16;4.17;;;3.60;;
5539;SDS011;2792;52.452;9.752;2024-02-26T04:02:43;4.20;;;3.63;;
5539;SDS011;2792;52.452;9.752;2024-02-26T04:05:11;3.72;;;3.42;;
5539;SDS011;2792;52.452;9.752;2024-02-26T04:07:38;4.15;;;3.30;;
5539;SDS011;2792;52.452;9.752;2024-02-26T04:10:08;6.35;;;3.60;;
5539;SDS011;2792;52.452;9.752;2024-02-26T04:12:35;4.17;;;3.20;;
5539;SDS011;2792;52.452;9.752;2024-02-26T04:15:01;4.15;;;3.78;;
5539;SDS011;2792;52.452;9.752;2024-02-26T04:17:28;3.43;;;3.13;;
5539;SDS011;2792;52.452;9.752;2024-02-26T04:19:54;5.53;;;3.60;;
5539;SDS011;2792;52.452;9.752;2024-02-26T04:22:22;3.85;;;3.55;;
5539;SDS011;2792;52.452;9.752;2024-02-26T04:24:49;7.20;;;3.30;;
5539;SDS011;2792;52.452;9.752;2024-02-26T04:27:15;4.07;;;3.33;;
5539;SDS011;2792;52.452;9.752;2024-02-26T04:29:42;3.90;;;3.50;;
5539;SDS011;2792;52.452;9.752;2024-02-26T04:32:09;3.30;;;3.00;;
5539;SDS011;2792;52.452;9.752;2024-02-26T04:34:35;5.27;;;3.47;;
5539;SDS011;2792;52.452;9.752;2024-02-26T04:37:02;4.03;;;3.17;;
5539;SDS011;2792;52.452;9.752;2024-02-26T04:39:30;4.80;;;3.77;;
5539;SDS011;2792;52.452;9.752;2024-02-26T04:41:57;4.37;;;3.33;;
5539;SDS011;2792;52.452;9.752;2024-02-26T04:44:23;4.70;;;3.93;;
5539;SDS011;2792;52.452;9.752;2024-02-26T04:46:50;3.40;;;3.10;;
5539;SDS011;2792;52.452;9.752;2024-02-26T04:49:16;4.67;;;2.80;;
5539;SDS011;2792;52.452;9.752;2024-02-26T04:51:42;3.67;;;3.27;;
5539;SDS011;2792;52.452;9.752;2024-02-26T04:54:09;5.70;;;3.60;;
5539;SDS011;2792;52.452;9.752;2024-02-26T04:56:37;7.53;;;3.00;;
5539;SDS011;2792;52.452;9.752;2024-02-26T04:59:03;5.80;;;3.17;;
5539;SDS011;2792;52.452;9.752;2024-02-26T05:01:30;4.27;;;3.17;;
5539;SDS011;2792;52.452;9.752;2024-02-26T05:03:56;4.00;;;3.20;;
5539;SDS011;2792;52.452;9.752;2024-02-26T05:06:23;9.30;;;3.80;;
5539;SDS011;2792;52.452;9.752;2024-02-26T05:08:49;3.70;;;3.20;;
5539;SDS011;2792;52.452;9.752;2024-02-26T05:11:16;7.13;;;3.40;;
5539;SDS011;2792;52.452;9.752;2024-02-26T05:13:44;5.30;;;2.70;;
5539;SDS011;2792;52.452;9.752;2024-02-26T05:16:11;6.40;;;3.57;;
5539;SDS011;2792;52.452;9.752;2024-02-26T05:18:38;3.73;;;2.93;;
5539;SDS011;2792;52.452;9.752;2024-02-26T05:21:04;3.03;;;2.73;;
5539;SDS011;2792;52.452;9.752;2024-02-26T05:23:31;2.93;;;2.67;;
5539;SDS011;2792;52.452;9.752;2024-02-26T05:25:57;3.73;;;3.00;;
5539;SDS011;2792;52.452;9.752;2024-02-26T05:28:24;3.57;;;3.27;;
5539;SDS011;2792;52.452;9.752;2024-02-26T05:30:51;3.30;;;3.00;;
5539;SDS011;2792;52.452;9.752;2024-02-26T05:33:18;3.20;;;2.90;;
5539;SDS011;2792;52.452;9.752;2024-02-26T05:35:44;3.67;;;2.97;;
5539;SDS011;2792;52.452;9.752;2024-02-26T05:38:11;3.80;;;3.23;;
5539;SDS011;2792;52.452;9.752;2024-02-26T05:40:37;2.70;;;2.40;;
5539;SDS011;2792;52.452;9.752;2024-02-26T05:43:04;3.30;;;3.00;;
5539;SDS011;2792;52.452;9.752;2024-02-26T05:45:31;2.97;;;2.77;;
5539;SDS011;2792;52.452;9.752;2024-02-26T05:47:59;4.37;;;3.00;;
5539;SDS011;2792;52.452;9.752;2024-02-26T05:50:25;3.33;;;3.03;;
5539;SDS011;2792;52.452;9.752;2024-02-26T05:52:52;4.20;;;2.73;;
5539;SDS011;2792;52.452;9.752;2024-02-26T05:55:18;4.17;;;2.77;;
5539;SDS011;2792;52.452;9.752;2024-02-26T05:57:45;4.33;;;2.90;;
5539;SDS011;2792;52.452;9.752;2024-02-26T06:00:12;3.40;;;3.10;;
5539;SDS011;2792;52.452;9.752;2024-02-26T06:02:39;3.90;;;3.17;;
5539;SDS011;2792;52.452;9.752;2024-02-26T06:05:07;9.40;;;2.80;;
5539;SDS011;2792;52.452;9.752;2024-02-26T06:07:34;3.60;;;3.27;;
5539;SDS011;2792;52.452;9.752;2024-02-26T06:10:01;3.70;;;2.80;;
5539;SDS011;2792;52.452;9.752;2024-02-26T06:12:29;3.27;;;2.73;;
5539;SDS011;2792;52.452;9.752;2024-02-26T06:14:56;3.70;;;3.30;;
5539;SDS011;2792;52.452;9.752;2024-02-26T06:17:23;4.67;;;3.00;;
5539;SDS011;2792;52.452;9.752;2024-02-26T06:19:50;8.20;;;3.50;;
5539;SDS011;2792;52.452;9.752;2024-02-26T06:22:18;3.60;;;2.90;;
5539;SDS011;2792;52.452;9.752;2024-02-26T06:24:44;2.87;;;2.67;;
5539;SDS011;2792;52.452;9.752;2024-02-26T06:27:11;2.90;;;2.70;;
5539;SDS011;2792;52.452;9.752;2024-02-26T06:29:37;8.80;;;3.13;;
5539;SDS011;2792;52.452;9.752;2024-02-26T06:32:04;3.67;;;3.10;;
5539;SDS011;2792;52.452;9.752;2024-02-26T06:34:31;5.17;;;2.90;;
5539;SDS011;2792;52.452;9.752;2024-02-26T06:36:58;6.10;;;3.00;;
5539;SDS011;2792;52.452;9.752;2024-02-26T06:39:26;2.73;;;2.53;;
5539;SDS011;2792;52.452;9.752;2024-02-26T06:41:52;4.43;;;3.00;;
5539;SDS011;2792;52.452;9.752;2024-02-26T06:44:25;3.30;;;3.00;;
5539;SDS011;2792;52.452;9.752;2024-02-26T06:46:51;3.27;;;2.83;;
5539;SDS011;2792;52.452;9.752;2024-02-26T06:49:18;3.63;;;3.30;;
5539;SDS011;2792;52.452;9.752;2024-02-26T06:51:45;3.00;;;2.70;;
5539;SDS011;2792;52.452;9.752;2024-02-26T06:54:11;5.50;;;2.77;;
5539;SDS011;2792;52.452;9.752;2024-02-26T06:56:39;3.27;;;2.90;;
5539;SDS011;2792;52.452;9.752;2024-02-26T06:59:05;3.43;;;2.77;;
5539;SDS011;2792;52.452;9.752;2024-02-26T07:01:32;2.23;;;2.03;;
5539;SDS011;2792;52.452;9.752;2024-02-26T07:03:58;3.00;;;2.70;;
5539;SDS011;2792;52.452;9.752;2024-02-26T07:06:25;3.60;;;2.90;;
5539;SDS011;2792;52.452;9.752;2024-02-26T07:08:53;3.00;;;2.70;;
5539;SDS011;2792;52.452;9.752;2024-02-26T07:11:20;3.03;;;2.73;;
5539;SDS011;2792;52.452;9.752;2024-02-26T07:13:47;4.50;;;3.37;;
5539;SDS011;2792;52.452;9.752;2024-02-26T07:16:14;3.93;;;3.10;;
5539;SDS011;2792;52.452;9.752;2024-02-26T07:18:41;7.10;;;3.00;;
5539;SDS011;2792;52.452;9.752;2024-02-26T07:21:08;3.67;;;3.37;;
5539;SDS011;2792;52.452;9.752;2024-02-26T07:23:35;4.60;;;3.70;;
5539;SDS011;2792;52.452;9.752;2024-02-26T07:26:01;4.17;;;3.27;;
5539;SDS011;2792;52.452;9.752;2024-02-26T07:28:28;3.50;;;2.97;;
5539;SDS011;2792;52.452;9.752;2024-02-26T07:30:56;3.47;;;3.17;;
5539;SDS011;2792;52.452;9.752;2024-02-26T07:33:23;5.00;;;3.20;;
5539;SDS011;2792;52.452;9.752;2024-02-26T07:35:49;5.67;;;3.67;;
5539;SDS011;2792;52.452;9.752;2024-02-26T07:38:16;3.67;;;3.23;;
5539;SDS011;2792;52.452;9.752;2024-02-26T07:40:43;3.43;;;3.13;;
5539;SDS011;2792;52.452;9.752;2024-02-26T07:43:13;4.00;;;3.70;;
5539;SDS011;2792;52.452;9.752;2024-02-26T07:45:39;3.33;;;3.03;;
5539;SDS011;2792;52.452;9.752;2024-02-26T07:48:08;3.40;;;3.10;;
5539;SDS011;2792;52.452;9.752;2024-02-26T07:50:34;5.03;;;3.10;;
5539;SDS011;2792;52.452;9.752;2024-02-26T07:53:01;4.00;;;3.50;;
5539;SDS011;2792;52.452;9.752;2024-02-26T07:55:27;5.40;;;3.60;;
5539;SDS011;2792;52.452;9.752;2024-02-26T07:57:54;3.43;;;3.13;;
5539;SDS011;2792;52.452;9.752;2024-02-26T08:00:20;4.73;;;3.70;;
5539;SDS011;2792;52.452;9.752;2024-02-26T08:02:47;3.00;;;2.70;;
5539;SDS011;2792;52.452;9.752;2024-02-26T08:05:15;3.73;;;3.20;;
5539;SDS011;2792;52.452;9.752;2024-02-26T08:07:41;5.90;;;3.47;;
5539;SDS011;2792;52.452;9.752;2024-02-26T08:10:08;4.30;;;3.73;;
5539;SDS011;2792;52.452;9.752;2024-02-26T08:12:36;3.20;;;2.90;;
5539;SDS011;2792;52.452;9.752;2024-02-26T08:15:02;3.70;;;3.40;;
5539;SDS011;2792;52.452;9.752;2024-02-26T08:17:29;5.67;;;3.47;;
5539;SDS011;2792;52.452;9.752;2024-02-26T08:19:57;3.17;;;2.87;;
5539;SDS011;2792;52.452;9.752;2024-02-26T08:22:25;3.40;;;3.10;;
5539;SDS011;2792;52.452;9.752;2024-02-26T08:24:52;2.93;;;2.60;;
5539;SDS011;2792;52.452;9.752;2024-02-26T08:27:18;3.77;;;3.37;;
5539;SDS011;2792;52.452;9.752;2024-02-26T08:29:45;3.23;;;3.03;;
5539;SDS011;2792;52.452;9.752;2024-02-26T08:32:11;4.63;;;2.80;;
5539;SDS011;2792;52.452;9.752;2024-02-26T08:34:38;2.93;;;2.70;;
5539;SDS011;2792;52.452;9.752;2024-02-26T08:37:05;3.30;;;3.00;;
5539;SDS011;2792;52.452;9.752;2024-02-26T08:39:33;3.20;;;2.90;;
5539;SDS011;2792;52.452;9.752;2024-02-26T08:42:00;3.20;;;2.80;;
5539;SDS011;2792;52.452;9.752;2024-02-26T08:44:26;6.33;;;2.70;;
5539;SDS011;2792;52.452;9.752;2024-02-26T08:46:53;2.60;;;2.40;;
5539;SDS011;2792;52.452;9.752;2024-02-26T08:49:19;2.70;;;2.50;;
5539;SDS011;2792;52.452;9.752;2024-02-26T08:51:48;3.07;;;2.37;;
5539;SDS011;2792;52.452;9.752;2024-02-26T08:54:14;4.03;;;2.60;;
5539;SDS011;2792;52.452;9.752;2024-02-26T08:56:42;2.47;;;2.30;;
5539;SDS011;2792;52.452;9.752;2024-02-26T08:59:09;2.60;;;2.23;;
5539;SDS011;2792;52.452;9.752;2024-02-26T09:01:35;2.30;;;2.10;;
5539;SDS011;2792;52.452;9.752;2024-02-26T09:04:02;2.80;;;2.33;;
5539;SDS011;2792;52.452;9.752;2024-02-26T09:06:28;5.17;;;2.70;;
5539;SDS011;2792;52.452;9.752;2024-02-26T09:08:55;3.20;;;2.30;;
5539;SDS011;2792;52.452;9.752;2024-02-26T09:11:22;3.03;;;2.60;;
5539;SDS011;2792;52.452;9.752;2024-02-26T09:13:49;4.43;;;3.37;;
5539;SDS011;2792;52.452;9.752;2024-02-26T09:16:16;2.23;;;2.13;;
5539;SDS011;2792;52.452;9.752;2024-02-26T09:18:42;2.77;;;2.40;;
5539;SDS011;2792;52.452;9.752;2024-02-26T09:21:09;2.50;;;2.27;;
5539;SDS011;2792;52.452;9.752;2024-02-26T09:23:35;2.83;;;2.53;;
5539;SDS011;2792;52.452;9.752;2024-02-26T09:26:02;4.03;;;2.00;;
5539;SDS011;2792;52.452;9.752;2024-02-26T09:28:29;2.70;;;2.17;;
5539;SDS011;2792;52.452;9.752;2024-02-26T09:31:03;2.60;;;2.37;;
5539;SDS011;2792;52.452;9.752;2024-02-26T09:33:30;2.67;;;2.43;;
5539;SDS011;2792;52.452;9.752;2024-02-26T09:35:56;2.53;;;2.33;;
5539;SDS011;2792;52.452;9.752;2024-02-26T09:38:23;2.97;;;2.30;;
5539;SDS011;2792;52.452;9.752;2024-02-26T09:40:49;4.17;;;2.60;;
5539;SDS011;2792;52.452;9.752;2024-02-26T09:43:16;3.50;;;2.20;;
5539;SDS011;2792;52.452;9.752;2024-02-26T09:45:43;3.30;;;2.73;;
5539;SDS011;2792;52.452;9.752;2024-02-26T09:48:11;2.13;;;2.03;;
5539;SDS011;2792;52.452;9.752;2024-02-26T09:50:39;3.60;;;2.20;;
5539;SDS011;2792;52.452;9.752;2024-02-26T09:53:08;2.70;;;2.50;;
5539;SDS011;2792;52.452;9.752;2024-02-26T09:55:35;5.03;;;2.87;;
5539;SDS011;2792;52.452;9.752;2024-02-26T09:58:01;2.50;;;2.30;;
5539;SDS011;2792;52.452;9.752;2024-02-26T10:00:31;8.90;;;2.50;;
5539;SDS011;2792;52.452;9.752;2024-02-26T10:02:59;2.47;;;2.27;;
5539;SDS011;2792;52.452;9.752;2024-02-26T10:05:29;3.07;;;2.50;;
5539;SDS011;2792;52.452;9.752;2024-02-26T10:07:56;2.33;;;2.20;;
5539;SDS011;2792;52.452;9.752;2024-02-26T10:10:23;2.60;;;2.40;;
5539;SDS011;2792;52.452;9.752;2024-02-26T10:12:50;2.00;;;1.80;;
5539;SDS011;2792;52.452;9.752;2024-02-26T10:15:16;2.27;;;2.07;;
5539;SDS011;2792;52.452;9.752;2024-02-26T10:17:43;5.87;;;2.10;;
5539;SDS011;2792;52.452;9.752;2024-02-26T10:20:11;4.63;;;1.93;;
5539;SDS011;2792;52.452;9.752;2024-02-26T10:22:39;2.03;;;1.83;;
5539;SDS011;2792;52.452;9.752;2024-02-26T10:25:06;2.40;;;2.20;;
5539;SDS011;2792;52.452;9.752;2024-02-26T10:27:33;2.30;;;2.10;;
5539;SDS011;2792;52.452;9.752;2024-02-26T10:30:02;2.57;;;1.97;;
5539;SDS011;2792;52.452;9.752;2024-02-26T10:32:29;2.00;;;1.83;;
5539;SDS011;2792;52.452;9.752;2024-02-26T10:34:56;2.00;;;1.90;;
5539;SDS011;2792;52.452;9.752;2024-02-26T10:37:22;2.93;;;2.40;;
5539;SDS011;2792;52.452;9.752;2024-02-26T10:39:51;1.90;;;1.80;;
5539;SDS011;2792;52.452;9.752;2024-02-26T10:42:18;4.07;;;2.07;;
5539;SDS011;2792;52.452;9.752;2024-02-26T10:44:44;3.30;;;2.33;;
5539;SDS011;2792;52.452;9.752;2024-02-26T10:47:13;1.90;;;1.80;;
5539;SDS011;2792;52.452;9.752;2024-02-26T10:49:44;4.50;;;2.17;;
5539;SDS011;2792;52.452;9.752;2024-02-26T10:52:11;2.07;;;1.97;;
5539;SDS011;2792;52.452;9.752;2024-02-26T10:54:39;2.60;;;2.40;;
5539;SDS011;2792;52.452;9.752;2024-02-26T10:57:10;2.20;;;2.00;;
5539;SDS011;2792;52.452;9.752;2024-02-26T10:59:37;3.27;;;2.00;;
5539;SDS011;2792;52.452;9.752;2024-02-26T11:02:04;3.03;;;2.20;;
5539;SDS011;2792;52.452;9.752;2024-02-26T11:04:31;3.63;;;2.30;;
5539;SDS011;2792;52.452;9.752;2024-02-26T11:06:58;2.37;;;2.17;;
5539;SDS011;2792;52.452;9.752;2024-02-26T11:09:26;2.13;;;1.90;;
5539;SDS011;2792;52.452;9.752;2024-02-26T11:11:53;2.00;;;1.90;;
5539;SDS011;2792;52.452;9.752;2024-02-26T11:14:21;2.17;;;2.00;;
5539;SDS011;2792;52.452;9.752;2024-02-26T11:16:50;3.63;;;2.37;;
5539;SDS011;2792;52.452;9.752;2024-02-26T11:19:18;3.80;;;3.43;;
5539;SDS011;2792;52.452;9.752;2024-02-26T11:21:44;2.60;;;1.67;;
5539;SDS011;2792;52.452;9.752;2024-02-26T11:24:11;3.00;;;2.40;;
5539;SDS011;2792;52.452;9.752;2024-02-26T11:26:40;2.37;;;1.80;;
5539;SDS011;2792;52.452;9.752;2024-02-26T11:29:10;2.70;;;2.13;;
5539;SDS011;2792;52.452;9.752;2024-02-26T11:31:39;2.23;;;1.70;;
5539;SDS011;2792;52.452;9.752;2024-02-26T11:34:06;2.07;;;1.80;;
5539;SDS011;2792;52.452;9.752;2024-02-26T11:36:33;2.13;;;2.03;;
5539;SDS011;2792;52.452;9.752;2024-02-26T11:39:00;2.30;;;2.10;;
5539;SDS011;2792;52.452;9.752;2024-02-26T11:41:27;1.77;;;1.67;;
5539;SDS011;2792;52.452;9.752;2024-02-26T11:43:57;2.20;;;2.00;;
5539;SDS011;2792;52.452;9.752;2024-02-26T11:46:26;5.60;;;3.20;;
5539;SDS011;2792;52.452;9.752;2024-02-26T11:48:55;2.33;;;1.60;;
5539;SDS011;2792;52.452;9.752;2024-02-26T11:51:26;2.40;;;2.10;;
5539;SDS011;2792;52.452;9.752;2024-02-26T11:53:53;2.67;;;2.13;;
5539;SDS011;2792;52.452;9.752;2024-02-26T11:56:22;2.53;;;1.90;;
5539;SDS011;2792;52.452;9.752;2024-02-26T11:58:53;2.10;;;2.00;;
5539;SDS011;2792;52.452;9.752;2024-02-26T12:01:35;2.50;;;2.03;;
5539;SDS011;2792;52.452;9.752;2024-02-26T12:04:05;2.13;;;1.87;;
5539;SDS011;2792;52.452;9.752;2024-02-26T12:06:39;2.30;;;2.10;;
5539;SDS011;2792;52.452;9.752;2024-02-26T12:09:07;2.13;;;1.90;;
5539;SDS011;2792;52.452;9.752;2024-02-26T12:11:36;4.47;;;2.37;;
5539;SDS011;2792;52.452;9.752;2024-02-26T12:14:05;3.53;;;2.37;;
5539;SDS011;2792;52.452;9.752;2024-02-26T12:16:35;2.43;;;2.10;;
5539;SDS011;2792;52.452;9.752;2024-02-26T12:19:03;3.60;;;2.83;;
5539;SDS011;2792;52.452;9.752;2024-02-26T12:21:33;2.00;;;1.90;;
5539;SDS011;2792;52.452;9.752;2024-02-26T12:24:08;2.00;;;1.90;;
5539;SDS011;2792;52.452;9.752;2024-02-26T12:26:36;2.40;;;2.20;;
5539;SDS011;2792;52.452;9.752;2024-02-26T12:29:03;3.10;;;2.03;;
5539;SDS011;2792;52.452;9.752;2024-02-26T12:31:29;2.80;;;1.90;;
5539;SDS011;2792;52.452;9.752;2024-02-26T12:33:56;1.80;;;1.70;;
5539;SDS011;2792;52.452;9.752;2024-02-26T12:36:24;2.63;;;1.87;;
5539;SDS011;2792;52.452;9.752;2024-02-26T12:38:51;2.57;;;1.87;;
5539;SDS011;2792;52.452;9.752;2024-02-26T12:41:18;2.77;;;2.47;;
5539;SDS011;2792;52.452;9.752;2024-02-26T12:43:44;1.77;;;1.67;;
5539;SDS011;2792;52.452;9.752;2024-02-26T12:46:12;1.83;;;1.70;;
5539;SDS011;2792;52.452;9.752;2024-02-26T12:48:40;2.37;;;2.17;;
5539;SDS011;2792;52.452;9.752;2024-02-26T12:51:08;1.70;;;1.50;;
5539;SDS011;2792;52.452;9.752;2024-02-26T12:53:36;2.50;;;1.63;;
5539;SDS011;2792;52.452;9.752;2024-02-26T12:56:04;1.80;;;1.70;;
5539;SDS011;2792;52.452;9.752;2024-02-26T12:58:32;2.23;;;2.03;;
5539;SDS011;2792;52.452;9.752;2024-02-26T13:01:00;1.67;;;1.57;;
5539;SDS011;2792;52.452;9.752;2024-02-26T13:03:26;3.00;;;1.80;;
5539;SDS011;2792;52.452;9.752;2024-02-26T13:05:54;1.93;;;1.73;;
5539;SDS011;2792;52.452;9.752;2024-02-26T13:08:20;1.70;;;1.60;;
5539;SDS011;2792;52.452;9.752;2024-02-26T13:10:48;1.47;;;1.37;;
5539;SDS011;2792;52.452;9.752;2024-02-26T13:13:16;2.00;;;1.70;;
5539;SDS011;2792;52.452;9.752;2024-02-26T13:15:43;1.53;;;1.40;;
5539;SDS011;2792;52.452;9.752;2024-02-26T13:18:10;1.50;;;1.40;;
5539;SDS011;2792;52.452;9.752;2024-02-26T13:20:38;2.40;;;1.50;;
5539;SDS011;2792;52.452;9.752;2024-02-26T13:23:06;2.20;;;1.43;;
5539;SDS011;2792;52.452;9.752;2024-02-26T13:25:34;2.43;;;1.60;;
5539;SDS011;2792;52.452;9.752;2024-02-26T13:28:09;2.03;;;1.70;;
5539;SDS011;2792;52.452;9.752;2024-02-26T13:30:36;1.83;;;1.40;;
5539;SDS011;2792;52.452;9.752;2024-02-26T13:33:09;2.27;;;1.83;;
5539;SDS011;2792;52.452;9.752;2024-02-26T13:35:36;1.43;;;1.33;;
5539;SDS011;2792;52.452;9.752;2024-02-26T13:38:04;2.30;;;2.00;;
5539;SDS011;2792;52.452;9.752;2024-02-26T13:40:30;1.50;;;1.40;;
5539;SDS011;2792;52.452;9.752;2024-02-26T13:42:57;2.40;;;1.90;;
5539;SDS011;2792;52.452;9.752;2024-02-26T13:45:25;1.50;;;1.40;;
5539;SDS011;2792;52.452;9.752;2024-02-26T13:47:51;1.50;;;1.40;;
5539;SDS011;2792;52.452;9.752;2024-02-26T13:50:18;2.07;;;1.33;;
5539;SDS011;2792;52.452;9.752;2024-02-26T13:52:46;2.90;;;1.40;;
5539;SDS011;2792;52.452;9.752;2024-02-26T13:55:18;1.60;;;1.50;;
5539;SDS011;2792;52.452;9.752;2024-02-26T13:57:44;4.20;;;1.90;;
5539;SDS011;2792;52.452;9.752;2024-02-26T14:00:11;1.50;;;1.40;;
5539;SDS011;2792;52.452;9.752;2024-02-26T14:02:40;3.33;;;1.60;;
5539;SDS011;2792;52.452;9.752;2024-02-26T14:05:06;2.03;;;1.83;;
5539;SDS011;2792;52.452;9.752;2024-02-26T14:07:33;4.90;;;1.63;;
5539;SDS011;2792;52.452;9.752;2024-02-26T14:10:00;1.43;;;1.33;;
5539;SDS011;2792;52.452;9.752;2024-02-26T14:12:26;1.90;;;1.40;;
5539;SDS011;2792;52.452;9.752;2024-02-26T14:14:53;2.90;;;1.97;;
5539;SDS011;2792;52.452;9.752;2024-02-26T14:17:20;3.23;;;1.53;;
5539;SDS011;2792;52.452;9.752;2024-02-26T14:19:48;2.40;;;1.70;;
5539;SDS011;2792;52.452;9.752;2024-02-26T14:22:15;1.50;;;1.40;;
5539;SDS011;2792;52.452;9.752;2024-02-26T14:24:41;2.70;;;1.97;;
5539;SDS011;2792;52.452;9.752;2024-02-26T14:27:08;2.10;;;1.60;;
5539;SDS011;2792;52.452;9.752;2024-02-26T14:29:37;1.63;;;1.43;;
5539;SDS011;2792;52.452;9.752;2024-02-26T14:32:05;2.83;;;1.70;;
5539;SDS011;2792;52.452;9.752;2024-02-26T14:34:31;1.40;;;1.30;;
5539;SDS011;2792;52.452;9.752;2024-02-26T14:36:59;4.00;;;1.50;;
5539;SDS011;2792;52.452;9.752;2024-02-26T14:39:26;1.50;;;1.40;;
5539;SDS011;2792;52.452;9.752;2024-02-26T14:41:52;2.67;;;1.70;;
5539;SDS011;2792;52.452;9.752;2024-02-26T14:44:19;3.87;;;1.70;;
5539;SDS011;2792;52.452;9.752;2024-02-26T14:46:45;3.23;;;2.60;;
5539;SDS011;2792;52.452;9.752;2024-02-26T14:49:12;6.60;;;4.53;;
5539;SDS011;2792;52.452;9.752;2024-02-26T14:51:38;13.27;;;7.10;;
5539;SDS011;2792;52.452;9.752;2024-02-26T14:54:06;10.77;;;5.17;;
5539;SDS011;2792;52.452;9.752;2024-02-26T14:56:33;3.20;;;1.80;;
5539;SDS011;2792;52.452;9.752;2024-02-26T14:59:00;1.80;;;1.70;;
5539;SDS011;2792;52.452;9.752;2024-02-26T15:01:26;3.53;;;3.00;;
5539;SDS011;2792;52.452;9.752;2024-02-26T15:03:53;1.77;;;1.50;;
5539;SDS011;2792;52.452;9.752;2024-02-26T15:06:19;1.47;;;1.37;;
5539;SDS011;2792;52.452;9.752;2024-02-26T15:08:46;4.80;;;4.40;;
5539;SDS011;2792;52.452;9.752;2024-02-26T15:11:14;2.40;;;1.40;;
5539;SDS011;2792;52.452;9.752;2024-02-26T15:13:41;2.57;;;1.23;;